Zion National Park, UT

9:30 PM MST on February 12, 2016 (GMT -0700)
Virgin, Utah | | Change Station
CLOSE
Current Station
Personal Weather Station
Location: Virgin, UT
Elevation: 3563 ft
Nearby Weather Stations

Elev 3563 ft 37.20 °N, 113.16 °W | Updated 6 minutes ago

Clear
Clear
48.0 °F
Feels Like 48 °F
N
0.0
Wind Variable Wind from ESE

Today
High -- | Low -- °F
--% Chance of Precip.
Yesterday
High -- | Low -- °F
Precip. -- in
Pressure 30.30 in
Visibility 10.0 miles
Clouds Clear
Windchill 48 °F
Dew Point 29 °F
Humidity 47%
Rainfall 0.00 in
Snow Depth Not available.
7:24 AM 6:08 PM
Waxing Crescent, 26% visible
METAR KAZC 130415Z AUTO 13006KT 10SM CLR 03/M03 A3030 RMK AO2 T00281026
Pressure 30.30 in
Visibility 10.0 miles
Clouds Clear
Windchill 48 °F
Dew Point 29 °F
Humidity 47%
Rainfall 0.00 in
Snow Depth Not available.
7:24 AM 6:08 PM
Waxing Crescent, 26% visible
METAR KAZC 130415Z AUTO 13006KT 10SM CLR 03/M03 A3030 RMK AO2 T00281026

10-Day Weather Forecast

Almanac

Astronomy

Feb. 12, 2016 Rise Set
Actual Time
Civil Twilight
Nautical Twilight
Astronomical Twilight
Moon
Length of Visible Light
Length of Day
Tomorrow will be .
, % of the Moon is Illuminated

Today's Extremes

State Highs State Lows

Community

WunderPhotos

Upload Photos

1,892,499 photos uploaded!

WunderBlog® & News

Nearby

Air Quality

  Air Quality AQ Index Pollutant
Not available.

Snow Depth

Station Depth Elevation

Earthquake Activity

City Distance Mag. Time & Date
Minimum magnitude displayed is 2.5.

Coastal Water Temperatures

Place Temperature

Stations

Nearby Weather Stations

Station Location Temp. Windchill Dew Point Humidity Wind Precip. Elev Updated Type
                   

Watches & Warnings

There are currently no watches in effect.